Accueil
METAR-TAF:

METAR-TAF

Aéroports :

Brescia Ghedi, Italie

latitude: 45-25N, longitude: 010-17E, altitude: 102 m

Observation

Le bulletin a été fait il y a 1 heure et 11 minutes, à 01:55 UTC
Vent 8 kt de est/nord-est
Température 20°C
Humidité 78%
Pression 1019 hPa
Visibilité: 8000 m
Nuages épars à une hauteur de 5000 ft

METAR: LIPL 270155Z 07008KT 8000 SCT050 20/16 Q1019 RMK BKN SCT200 VIS MIN 8000 WIND THR31 06007KT WIND THR13 06006KT BLU

Heure: 05:06 (03:06 UTC)


TAF: absent

Observations et prévisions météorologiques de plus de 4000 aéroports (messages METAR et TAF).

Les stations disponibles sont représentées par des disques jaunes et rouges sur la carte.

Passer la souris dessus pour voir le nom de la station.

Cliquer dessus pour voir les observations et prévisions météorologiques.

Pour changer de carte: cliquez sur les boutons verts avec une croix noire pour zoomer, sur le bouton vert avec un tiret pour effectuer un zoom arrière, ou sur les flèches vertes pour les cartes adjacentes.


METAR-TAF: